sensor_id;sensor_type;location;lat;lon;timestamp;P1;durP1;ratioP1;P2;durP2;ratioP2
56136;SDS011;42008;52.934;5.884;2023-04-06T00:01:00;10.63;;;6.20;;
56136;SDS011;42008;52.934;5.884;2023-04-06T00:03:25;10.67;;;7.10;;
56136;SDS011;42008;52.934;5.884;2023-04-06T00:05:51;10.50;;;6.43;;
56136;SDS011;42008;52.934;5.884;2023-04-06T00:08:17;11.60;;;5.97;;
56136;SDS011;42008;52.934;5.884;2023-04-06T00:10:42;12.87;;;7.10;;
56136;SDS011;42008;52.934;5.884;2023-04-06T00:13:08;11.13;;;7.00;;
56136;SDS011;42008;52.934;5.884;2023-04-06T00:15:33;11.80;;;7.03;;
56136;SDS011;42008;52.934;5.884;2023-04-06T00:17:59;11.83;;;7.33;;
56136;SDS011;42008;52.934;5.884;2023-04-06T00:20:25;12.23;;;6.60;;
56136;SDS011;42008;52.934;5.884;2023-04-06T00:22:51;11.40;;;6.50;;
56136;SDS011;42008;52.934;5.884;2023-04-06T00:25:16;11.30;;;6.80;;
56136;SDS011;42008;52.934;5.884;2023-04-06T00:27:42;10.10;;;5.80;;
56136;SDS011;42008;52.934;5.884;2023-04-06T00:30:08;10.53;;;6.10;;
56136;SDS011;42008;52.934;5.884;2023-04-06T00:32:34;10.30;;;6.23;;
56136;SDS011;42008;52.934;5.884;2023-04-06T00:35:02;12.87;;;6.47;;
56136;SDS011;42008;52.934;5.884;2023-04-06T00:37:28;9.00;;;6.33;;
56136;SDS011;42008;52.934;5.884;2023-04-06T00:39:54;10.50;;;6.87;;
56136;SDS011;42008;52.934;5.884;2023-04-06T00:42:20;9.50;;;6.50;;
56136;SDS011;42008;52.934;5.884;2023-04-06T00:44:54;10.07;;;6.33;;
56136;SDS011;42008;52.934;5.884;2023-04-06T00:47:21;11.40;;;7.57;;
56136;SDS011;42008;52.934;5.884;2023-04-06T00:49:47;11.70;;;6.53;;
56136;SDS011;42008;52.934;5.884;2023-04-06T00:52:13;10.90;;;6.70;;
56136;SDS011;42008;52.934;5.884;2023-04-06T00:54:39;11.73;;;7.07;;
56136;SDS011;42008;52.934;5.884;2023-04-06T00:57:05;9.57;;;6.57;;
56136;SDS011;42008;52.934;5.884;2023-04-06T00:59:31;9.73;;;6.30;;
56136;SDS011;42008;52.934;5.884;2023-04-06T01:01:57;11.23;;;7.00;;
56136;SDS011;42008;52.934;5.884;2023-04-06T01:04:22;12.93;;;7.17;;
56136;SDS011;42008;52.934;5.884;2023-04-06T01:06:48;12.33;;;7.57;;
56136;SDS011;42008;52.934;5.884;2023-04-06T01:09:15;11.20;;;7.10;;
56136;SDS011;42008;52.934;5.884;2023-04-06T01:11:40;10.97;;;6.80;;
56136;SDS011;42008;52.934;5.884;2023-04-06T01:14:06;12.27;;;6.87;;
56136;SDS011;42008;52.934;5.884;2023-04-06T01:16:32;10.93;;;7.03;;
56136;SDS011;42008;52.934;5.884;2023-04-06T01:18:58;10.90;;;7.17;;
56136;SDS011;42008;52.934;5.884;2023-04-06T01:21:23;10.13;;;6.57;;
56136;SDS011;42008;52.934;5.884;2023-04-06T01:23:50;11.20;;;6.50;;
56136;SDS011;42008;52.934;5.884;2023-04-06T01:26:15;13.73;;;7.10;;
56136;SDS011;42008;52.934;5.884;2023-04-06T01:28:41;9.97;;;7.00;;
56136;SDS011;42008;52.934;5.884;2023-04-06T01:31:07;11.73;;;6.83;;
56136;SDS011;42008;52.934;5.884;2023-04-06T01:33:34;12.67;;;6.27;;
56136;SDS011;42008;52.934;5.884;2023-04-06T01:36:00;10.87;;;6.93;;
56136;SDS011;42008;52.934;5.884;2023-04-06T01:38:25;10.27;;;6.77;;
56136;SDS011;42008;52.934;5.884;2023-04-06T01:40:52;13.43;;;7.27;;
56136;SDS011;42008;52.934;5.884;2023-04-06T01:43:20;14.87;;;7.60;;
56136;SDS011;42008;52.934;5.884;2023-04-06T01:45:46;13.03;;;7.17;;
56136;SDS011;42008;52.934;5.884;2023-04-06T01:48:11;9.10;;;6.20;;
56136;SDS011;42008;52.934;5.884;2023-04-06T01:50:37;12.17;;;7.07;;
56136;SDS011;42008;52.934;5.884;2023-04-06T01:53:02;9.60;;;7.00;;
56136;SDS011;42008;52.934;5.884;2023-04-06T01:55:28;13.00;;;7.40;;
56136;SDS011;42008;52.934;5.884;2023-04-06T01:57:53;9.87;;;6.20;;
56136;SDS011;42008;52.934;5.884;2023-04-06T02:00:19;10.80;;;6.60;;
56136;SDS011;42008;52.934;5.884;2023-04-06T02:02:45;11.03;;;6.50;;
56136;SDS011;42008;52.934;5.884;2023-04-06T02:05:10;9.57;;;6.30;;
56136;SDS011;42008;52.934;5.884;2023-04-06T02:07:36;11.13;;;6.63;;
56136;SDS011;42008;52.934;5.884;2023-04-06T02:10:02;10.03;;;6.80;;
56136;SDS011;42008;52.934;5.884;2023-04-06T02:12:27;9.23;;;6.77;;
56136;SDS011;42008;52.934;5.884;2023-04-06T02:14:53;10.40;;;6.77;;
56136;SDS011;42008;52.934;5.884;2023-04-06T02:17:19;12.57;;;6.73;;
56136;SDS011;42008;52.934;5.884;2023-04-06T02:19:45;12.80;;;7.73;;
56136;SDS011;42008;52.934;5.884;2023-04-06T02:22:11;11.23;;;8.00;;
56136;SDS011;42008;52.934;5.884;2023-04-06T02:24:36;11.67;;;7.13;;
56136;SDS011;42008;52.934;5.884;2023-04-06T02:27:02;12.40;;;7.20;;
56136;SDS011;42008;52.934;5.884;2023-04-06T02:29:27;11.33;;;7.30;;
56136;SDS011;42008;52.934;5.884;2023-04-06T02:31:53;12.77;;;7.87;;
56136;SDS011;42008;52.934;5.884;2023-04-06T02:34:19;15.07;;;7.83;;
56136;SDS011;42008;52.934;5.884;2023-04-06T02:36:44;10.47;;;7.17;;
56136;SDS011;42008;52.934;5.884;2023-04-06T02:39:10;13.43;;;7.33;;
56136;SDS011;42008;52.934;5.884;2023-04-06T02:41:36;12.10;;;7.53;;
56136;SDS011;42008;52.934;5.884;2023-04-06T02:44:02;13.33;;;7.30;;
56136;SDS011;42008;52.934;5.884;2023-04-06T02:46:28;12.33;;;7.37;;
56136;SDS011;42008;52.934;5.884;2023-04-06T02:48:53;9.97;;;7.30;;
56136;SDS011;42008;52.934;5.884;2023-04-06T02:51:19;12.80;;;8.23;;
56136;SDS011;42008;52.934;5.884;2023-04-06T02:53:45;13.93;;;7.70;;
56136;SDS011;42008;52.934;5.884;2023-04-06T02:56:11;11.10;;;8.10;;
56136;SDS011;42008;52.934;5.884;2023-04-06T02:58:36;12.70;;;7.37;;
56136;SDS011;42008;52.934;5.884;2023-04-06T03:01:02;10.63;;;7.13;;
56136;SDS011;42008;52.934;5.884;2023-04-06T03:03:28;14.67;;;7.83;;
56136;SDS011;42008;52.934;5.884;2023-04-06T03:05:55;13.33;;;8.23;;
56136;SDS011;42008;52.934;5.884;2023-04-06T03:08:23;14.50;;;8.27;;
56136;SDS011;42008;52.934;5.884;2023-04-06T03:10:49;11.40;;;7.30;;
56136;SDS011;42008;52.934;5.884;2023-04-06T03:13:15;12.00;;;8.60;;
56136;SDS011;42008;52.934;5.884;2023-04-06T03:15:40;12.53;;;7.77;;
56136;SDS011;42008;52.934;5.884;2023-04-06T03:18:06;13.60;;;8.17;;
56136;SDS011;42008;52.934;5.884;2023-04-06T03:20:31;12.20;;;7.93;;
56136;SDS011;42008;52.934;5.884;2023-04-06T03:22:57;11.97;;;8.03;;
56136;SDS011;42008;52.934;5.884;2023-04-06T03:25:23;13.53;;;8.30;;
56136;SDS011;42008;52.934;5.884;2023-04-06T03:27:49;13.10;;;8.20;;
56136;SDS011;42008;52.934;5.884;2023-04-06T03:30:14;14.17;;;8.90;;
56136;SDS011;42008;52.934;5.884;2023-04-06T03:32:42;11.87;;;8.67;;
56136;SDS011;42008;52.934;5.884;2023-04-06T03:35:10;12.80;;;8.17;;
56136;SDS011;42008;52.934;5.884;2023-04-06T03:37:36;13.77;;;8.43;;
56136;SDS011;42008;52.934;5.884;2023-04-06T03:40:02;11.77;;;9.00;;
56136;SDS011;42008;52.934;5.884;2023-04-06T03:42:28;16.83;;;10.60;;
56136;SDS011;42008;52.934;5.884;2023-04-06T03:44:53;18.00;;;9.00;;
56136;SDS011;42008;52.934;5.884;2023-04-06T03:47:19;13.47;;;8.30;;
56136;SDS011;42008;52.934;5.884;2023-04-06T03:49:45;12.43;;;8.30;;
56136;SDS011;42008;52.934;5.884;2023-04-06T03:52:10;16.37;;;8.57;;
56136;SDS011;42008;52.934;5.884;2023-04-06T03:54:36;15.70;;;8.57;;
56136;SDS011;42008;52.934;5.884;2023-04-06T03:57:02;12.73;;;8.13;;
56136;SDS011;42008;52.934;5.884;2023-04-06T03:59:27;12.10;;;9.07;;
56136;SDS011;42008;52.934;5.884;2023-04-06T04:01:53;12.83;;;9.40;;
56136;SDS011;42008;52.934;5.884;2023-04-06T04:04:19;13.83;;;8.63;;
56136;SDS011;42008;52.934;5.884;2023-04-06T04:06:44;13.83;;;9.03;;
56136;SDS011;42008;52.934;5.884;2023-04-06T04:09:10;13.83;;;8.53;;
56136;SDS011;42008;52.934;5.884;2023-04-06T04:11:35;11.97;;;8.17;;
56136;SDS011;42008;52.934;5.884;2023-04-06T04:14:01;13.03;;;9.67;;
56136;SDS011;42008;52.934;5.884;2023-04-06T04:16:26;16.40;;;9.30;;
56136;SDS011;42008;52.934;5.884;2023-04-06T04:18:52;12.50;;;8.90;;
56136;SDS011;42008;52.934;5.884;2023-04-06T04:21:18;14.07;;;9.43;;
56136;SDS011;42008;52.934;5.884;2023-04-06T04:23:43;15.47;;;8.50;;
56136;SDS011;42008;52.934;5.884;2023-04-06T04:26:09;15.77;;;9.57;;
56136;SDS011;42008;52.934;5.884;2023-04-06T04:28:35;13.70;;;9.80;;
56136;SDS011;42008;52.934;5.884;2023-04-06T04:31:00;15.30;;;9.23;;
56136;SDS011;42008;52.934;5.884;2023-04-06T04:33:26;14.27;;;9.10;;
56136;SDS011;42008;52.934;5.884;2023-04-06T04:35:51;14.30;;;9.67;;
56136;SDS011;42008;52.934;5.884;2023-04-06T04:38:17;13.33;;;8.57;;
56136;SDS011;42008;52.934;5.884;2023-04-06T04:40:43;15.50;;;8.80;;
56136;SDS011;42008;52.934;5.884;2023-04-06T04:43:08;15.20;;;9.27;;
56136;SDS011;42008;52.934;5.884;2023-04-06T04:45:34;14.67;;;9.80;;
56136;SDS011;42008;52.934;5.884;2023-04-06T04:48:00;18.07;;;9.80;;
56136;SDS011;42008;52.934;5.884;2023-04-06T04:50:25;14.47;;;9.70;;
56136;SDS011;42008;52.934;5.884;2023-04-06T04:52:51;16.83;;;10.13;;
56136;SDS011;42008;52.934;5.884;2023-04-06T04:55:16;12.73;;;9.90;;
56136;SDS011;42008;52.934;5.884;2023-04-06T04:57:42;15.17;;;9.73;;
56136;SDS011;42008;52.934;5.884;2023-04-06T05:00:08;17.03;;;10.03;;
56136;SDS011;42008;52.934;5.884;2023-04-06T05:02:34;14.90;;;9.40;;
56136;SDS011;42008;52.934;5.884;2023-04-06T05:05:00;16.23;;;9.93;;
56136;SDS011;42008;52.934;5.884;2023-04-06T05:07:26;15.80;;;9.47;;
56136;SDS011;42008;52.934;5.884;2023-04-06T05:09:51;12.30;;;9.10;;
56136;SDS011;42008;52.934;5.884;2023-04-06T05:12:18;15.77;;;10.10;;
56136;SDS011;42008;52.934;5.884;2023-04-06T05:14:44;12.70;;;9.37;;
56136;SDS011;42008;52.934;5.884;2023-04-06T05:17:10;17.83;;;11.13;;
56136;SDS011;42008;52.934;5.884;2023-04-06T05:19:36;21.97;;;10.93;;
56136;SDS011;42008;52.934;5.884;2023-04-06T05:22:01;15.27;;;10.37;;
56136;SDS011;42008;52.934;5.884;2023-04-06T05:24:27;15.00;;;9.77;;
56136;SDS011;42008;52.934;5.884;2023-04-06T05:26:53;13.70;;;9.43;;
56136;SDS011;42008;52.934;5.884;2023-04-06T05:29:18;17.63;;;9.80;;
56136;SDS011;42008;52.934;5.884;2023-04-06T05:31:45;16.43;;;10.23;;
56136;SDS011;42008;52.934;5.884;2023-04-06T05:34:11;17.07;;;10.47;;
56136;SDS011;42008;52.934;5.884;2023-04-06T05:36:37;14.70;;;9.60;;
56136;SDS011;42008;52.934;5.884;2023-04-06T05:39:03;20.67;;;12.53;;
56136;SDS011;42008;52.934;5.884;2023-04-06T05:41:30;18.53;;;11.60;;
56136;SDS011;42008;52.934;5.884;2023-04-06T05:43:55;17.07;;;10.33;;
56136;SDS011;42008;52.934;5.884;2023-04-06T05:46:21;18.57;;;12.03;;
56136;SDS011;42008;52.934;5.884;2023-04-06T05:48:46;14.40;;;9.60;;
56136;SDS011;42008;52.934;5.884;2023-04-06T05:51:12;14.23;;;10.00;;
56136;SDS011;42008;52.934;5.884;2023-04-06T05:53:37;18.23;;;10.43;;
56136;SDS011;42008;52.934;5.884;2023-04-06T05:56:04;19.30;;;11.03;;
56136;SDS011;42008;52.934;5.884;2023-04-06T05:58:30;16.30;;;10.70;;
56136;SDS011;42008;52.934;5.884;2023-04-06T06:00:56;21.53;;;12.10;;
56136;SDS011;42008;52.934;5.884;2023-04-06T06:03:25;20.93;;;10.60;;
56136;SDS011;42008;52.934;5.884;2023-04-06T06:05:51;15.83;;;10.87;;
56136;SDS011;42008;52.934;5.884;2023-04-06T06:08:16;15.43;;;10.23;;
56136;SDS011;42008;52.934;5.884;2023-04-06T06:10:42;19.53;;;11.27;;
56136;SDS011;42008;52.934;5.884;2023-04-06T06:13:08;14.80;;;10.20;;
56136;SDS011;42008;52.934;5.884;2023-04-06T06:15:34;16.73;;;10.70;;
56136;SDS011;42008;52.934;5.884;2023-04-06T06:17:59;19.03;;;11.20;;
56136;SDS011;42008;52.934;5.884;2023-04-06T06:20:25;16.23;;;10.33;;
56136;SDS011;42008;52.934;5.884;2023-04-06T06:22:51;18.63;;;11.00;;
56136;SDS011;42008;52.934;5.884;2023-04-06T06:25:17;16.70;;;11.77;;
56136;SDS011;42008;52.934;5.884;2023-04-06T06:27:42;15.90;;;10.27;;
56136;SDS011;42008;52.934;5.884;2023-04-06T06:30:08;14.73;;;9.97;;
56136;SDS011;42008;52.934;5.884;2023-04-06T06:32:34;19.13;;;11.07;;
56136;SDS011;42008;52.934;5.884;2023-04-06T06:35:00;16.47;;;10.97;;
56136;SDS011;42008;52.934;5.884;2023-04-06T06:37:25;13.43;;;9.97;;
56136;SDS011;42008;52.934;5.884;2023-04-06T06:39:51;17.10;;;11.23;;
56136;SDS011;42008;52.934;5.884;2023-04-06T06:42:17;22.03;;;12.30;;
56136;SDS011;42008;52.934;5.884;2023-04-06T06:44:42;17.13;;;11.13;;
56136;SDS011;42008;52.934;5.884;2023-04-06T06:47:08;18.03;;;11.00;;
56136;SDS011;42008;52.934;5.884;2023-04-06T06:49:33;17.93;;;10.90;;
56136;SDS011;42008;52.934;5.884;2023-04-06T06:51:59;17.10;;;10.87;;
56136;SDS011;42008;52.934;5.884;2023-04-06T06:54:24;16.63;;;11.20;;
56136;SDS011;42008;52.934;5.884;2023-04-06T06:56:50;18.00;;;11.40;;
56136;SDS011;42008;52.934;5.884;2023-04-06T06:59:16;17.43;;;11.20;;
56136;SDS011;42008;52.934;5.884;2023-04-06T07:01:41;17.70;;;10.83;;
56136;SDS011;42008;52.934;5.884;2023-04-06T07:04:07;18.53;;;10.60;;
56136;SDS011;42008;52.934;5.884;2023-04-06T07:06:35;15.40;;;10.77;;
56136;SDS011;42008;52.934;5.884;2023-04-06T07:09:01;17.93;;;11.40;;
56136;SDS011;42008;52.934;5.884;2023-04-06T07:11:28;18.40;;;10.87;;
56136;SDS011;42008;52.934;5.884;2023-04-06T07:13:54;19.33;;;10.50;;
56136;SDS011;42008;52.934;5.884;2023-04-06T07:16:20;16.27;;;10.13;;
56136;SDS011;42008;52.934;5.884;2023-04-06T07:18:45;17.17;;;10.57;;
56136;SDS011;42008;52.934;5.884;2023-04-06T07:21:11;18.20;;;10.43;;
56136;SDS011;42008;52.934;5.884;2023-04-06T07:23:37;16.57;;;10.23;;
56136;SDS011;42008;52.934;5.884;2023-04-06T07:26:03;17.93;;;10.67;;
56136;SDS011;42008;52.934;5.884;2023-04-06T07:28:29;17.97;;;10.53;;
56136;SDS011;42008;52.934;5.884;2023-04-06T07:30:54;16.57;;;10.70;;
56136;SDS011;42008;52.934;5.884;2023-04-06T07:33:20;16.67;;;10.70;;
56136;SDS011;42008;52.934;5.884;2023-04-06T07:35:45;16.50;;;10.53;;
56136;SDS011;42008;52.934;5.884;2023-04-06T07:38:11;16.00;;;11.10;;
56136;SDS011;42008;52.934;5.884;2023-04-06T07:40:37;18.37;;;10.47;;
56136;SDS011;42008;52.934;5.884;2023-04-06T07:43:02;17.13;;;9.90;;
56136;SDS011;42008;52.934;5.884;2023-04-06T07:45:28;16.30;;;10.33;;
56136;SDS011;42008;52.934;5.884;2023-04-06T07:47:54;15.70;;;10.50;;
56136;SDS011;42008;52.934;5.884;2023-04-06T07:50:20;15.60;;;11.00;;
56136;SDS011;42008;52.934;5.884;2023-04-06T07:52:46;16.53;;;10.30;;
56136;SDS011;42008;52.934;5.884;2023-04-06T07:55:11;20.53;;;11.20;;
56136;SDS011;42008;52.934;5.884;2023-04-06T07:57:37;18.83;;;11.83;;
56136;SDS011;42008;52.934;5.884;2023-04-06T08:00:03;19.17;;;11.93;;
56136;SDS011;42008;52.934;5.884;2023-04-06T08:02:29;19.77;;;11.17;;
56136;SDS011;42008;52.934;5.884;2023-04-06T08:04:58;19.33;;;11.87;;
56136;SDS011;42008;52.934;5.884;2023-04-06T08:07:23;20.07;;;11.60;;
56136;SDS011;42008;52.934;5.884;2023-04-06T08:09:49;18.37;;;12.10;;
56136;SDS011;42008;52.934;5.884;2023-04-06T08:12:15;21.43;;;12.57;;
56136;SDS011;42008;52.934;5.884;2023-04-06T08:14:40;22.40;;;14.20;;
56136;SDS011;42008;52.934;5.884;2023-04-06T08:17:06;18.17;;;12.43;;
56136;SDS011;42008;52.934;5.884;2023-04-06T08:19:31;25.50;;;14.27;;
56136;SDS011;42008;52.934;5.884;2023-04-06T08:21:57;25.90;;;14.73;;
56136;SDS011;42008;52.934;5.884;2023-04-06T08:24:22;24.27;;;15.77;;
56136;SDS011;42008;52.934;5.884;2023-04-06T08:26:48;29.70;;;16.27;;
56136;SDS011;42008;52.934;5.884;2023-04-06T08:29:15;26.50;;;17.17;;
56136;SDS011;42008;52.934;5.884;2023-04-06T08:31:41;30.97;;;17.53;;
56136;SDS011;42008;52.934;5.884;2023-04-06T08:34:06;32.23;;;18.57;;
56136;SDS011;42008;52.934;5.884;2023-04-06T08:36:32;33.50;;;18.90;;
56136;SDS011;42008;52.934;5.884;2023-04-06T08:38:58;33.57;;;17.67;;
56136;SDS011;42008;52.934;5.884;2023-04-06T08:41:25;26.30;;;16.70;;
56136;SDS011;42008;52.934;5.884;2023-04-06T08:46:22;27.38;;;15.75;;
56136;SDS011;42008;52.934;5.884;2023-04-06T08:48:54;23.33;;;14.65;;
56136;SDS011;42008;52.934;5.884;2023-04-06T08:51:22;22.60;;;14.03;;
56136;SDS011;42008;52.934;5.884;2023-04-06T08:53:48;23.00;;;14.67;;
56136;SDS011;42008;52.934;5.884;2023-04-06T08:56:15;25.83;;;14.10;;
56136;SDS011;42008;52.934;5.884;2023-04-06T08:58:41;23.70;;;14.37;;
56136;SDS011;42008;52.934;5.884;2023-04-06T09:01:08;21.67;;;13.63;;
56136;SDS011;42008;52.934;5.884;2023-04-06T09:03:39;26.50;;;14.27;;
56136;SDS011;42008;52.934;5.884;2023-04-06T09:06:05;23.33;;;14.97;;
56136;SDS011;42008;52.934;5.884;2023-04-06T09:08:35;24.33;;;12.97;;
56136;SDS011;42008;52.934;5.884;2023-04-06T09:11:03;21.10;;;14.33;;
56136;SDS011;42008;52.934;5.884;2023-04-06T09:13:29;18.90;;;13.53;;
56136;SDS011;42008;52.934;5.884;2023-04-06T09:16:01;20.90;;;14.63;;
56136;SDS011;42008;52.934;5.884;2023-04-06T09:18:28;22.43;;;14.30;;
56136;SDS011;42008;52.934;5.884;2023-04-06T09:21:04;24.33;;;14.27;;
56136;SDS011;42008;52.934;5.884;2023-04-06T09:23:31;25.73;;;14.60;;
56136;SDS011;42008;52.934;5.884;2023-04-06T09:26:11;24.30;;;15.30;;
56136;SDS011;42008;52.934;5.884;2023-04-06T09:28:41;22.63;;;15.40;;
56136;SDS011;42008;52.934;5.884;2023-04-06T09:31:15;21.43;;;14.80;;
56136;SDS011;42008;52.934;5.884;2023-04-06T09:33:44;21.23;;;14.37;;
56136;SDS011;42008;52.934;5.884;2023-04-06T09:36:11;23.87;;;14.97;;
56136;SDS011;42008;52.934;5.884;2023-04-06T09:38:37;24.20;;;14.40;;
56136;SDS011;42008;52.934;5.884;2023-04-06T09:41:03;27.00;;;15.30;;
56136;SDS011;42008;52.934;5.884;2023-04-06T09:43:29;21.07;;;14.93;;
56136;SDS011;42008;52.934;5.884;2023-04-06T09:45:55;22.63;;;15.77;;
56136;SDS011;42008;52.934;5.884;2023-04-06T09:48:22;23.77;;;14.50;;
56136;SDS011;42008;52.934;5.884;2023-04-06T09:50:50;25.93;;;16.07;;
56136;SDS011;42008;52.934;5.884;2023-04-06T09:53:23;22.37;;;15.20;;
56136;SDS011;42008;52.934;5.884;2023-04-06T09:55:51;25.67;;;16.10;;
56136;SDS011;42008;52.934;5.884;2023-04-06T09:58:22;23.10;;;15.37;;
56136;SDS011;42008;52.934;5.884;2023-04-06T10:00:57;23.63;;;16.13;;
56136;SDS011;42008;52.934;5.884;2023-04-06T10:06:25;23.30;;;15.40;;
56136;SDS011;42008;52.934;5.884;2023-04-06T10:08:53;28.07;;;16.77;;
56136;SDS011;42008;52.934;5.884;2023-04-06T10:11:21;25.63;;;15.50;;
56136;SDS011;42008;52.934;5.884;2023-04-06T10:13:47;24.43;;;16.10;;
56136;SDS011;42008;52.934;5.884;2023-04-06T10:16:14;23.60;;;16.90;;
56136;SDS011;42008;52.934;5.884;2023-04-06T10:18:41;23.47;;;16.40;;
56136;SDS011;42008;52.934;5.884;2023-04-06T10:21:11;24.70;;;16.93;;
56136;SDS011;42008;52.934;5.884;2023-04-06T10:23:45;26.63;;;16.97;;
56136;SDS011;42008;52.934;5.884;2023-04-06T10:26:21;29.17;;;17.93;;
56136;SDS011;42008;52.934;5.884;2023-04-06T10:28:48;27.03;;;17.40;;
56136;SDS011;42008;52.934;5.884;2023-04-06T10:31:14;26.17;;;18.27;;
56136;SDS011;42008;52.934;5.884;2023-04-06T10:33:40;28.80;;;17.80;;
56136;SDS011;42008;52.934;5.884;2023-04-06T10:36:13;27.40;;;17.60;;
56136;SDS011;42008;52.934;5.884;2023-04-06T10:38:40;27.53;;;17.73;;
56136;SDS011;42008;52.934;5.884;2023-04-06T10:41:08;27.43;;;17.70;;
56136;SDS011;42008;52.934;5.884;2023-04-06T10:43:35;25.40;;;17.50;;
56136;SDS011;42008;52.934;5.884;2023-04-06T10:46:01;27.93;;;18.80;;
56136;SDS011;42008;52.934;5.884;2023-04-06T10:48:37;28.40;;;17.90;;
56136;SDS011;42008;52.934;5.884;2023-04-06T10:51:13;26.30;;;16.80;;
56136;SDS011;42008;52.934;5.884;2023-04-06T10:53:43;24.17;;;16.00;;
56136;SDS011;42008;52.934;5.884;2023-04-06T10:56:12;24.90;;;17.05;;
56136;SDS011;42008;52.934;5.884;2023-04-06T10:58:52;25.63;;;17.87;;
56136;SDS011;42008;52.934;5.884;2023-04-06T11:01:21;26.40;;;16.07;;
56136;SDS011;42008;52.934;5.884;2023-04-06T11:03:48;24.87;;;16.07;;
56136;SDS011;42008;52.934;5.884;2023-04-06T11:06:28;25.27;;;17.03;;
56136;SDS011;42008;52.934;5.884;2023-04-06T11:08:56;27.97;;;17.53;;
56136;SDS011;42008;52.934;5.884;2023-04-06T11:11:23;25.83;;;16.80;;
56136;SDS011;42008;52.934;5.884;2023-04-06T11:13:58;28.30;;;16.90;;
56136;SDS011;42008;52.934;5.884;2023-04-06T11:16:25;26.83;;;17.07;;
56136;SDS011;42008;52.934;5.884;2023-04-06T11:21:44;28.27;;;17.17;;
56136;SDS011;42008;52.934;5.884;2023-04-06T11:24:14;28.63;;;18.17;;
56136;SDS011;42008;52.934;5.884;2023-04-06T11:26:48;29.83;;;17.90;;
56136;SDS011;42008;52.934;5.884;2023-04-06T11:29:25;26.30;;;17.50;;
56136;SDS011;42008;52.934;5.884;2023-04-06T11:31:54;29.03;;;18.00;;
56136;SDS011;42008;52.934;5.884;2023-04-06T11:34:24;29.20;;;17.43;;
56136;SDS011;42008;52.934;5.884;2023-04-06T11:36:54;25.73;;;17.47;;
56136;SDS011;42008;52.934;5.884;2023-04-06T11:39:24;27.97;;;18.40;;
56136;SDS011;42008;52.934;5.884;2023-04-06T11:41:52;33.10;;;17.23;;
56136;SDS011;42008;52.934;5.884;2023-04-06T11:44:32;28.17;;;17.83;;
56136;SDS011;42008;52.934;5.884;2023-04-06T11:47:00;27.13;;;17.80;;
56136;SDS011;42008;52.934;5.884;2023-04-06T11:49:27;25.40;;;17.27;;
56136;SDS011;42008;52.934;5.884;2023-04-06T11:51:54;24.73;;;15.57;;
56136;SDS011;42008;52.934;5.884;2023-04-06T11:54:30;23.23;;;15.90;;
56136;SDS011;42008;52.934;5.884;2023-04-06T11:56:55;19.90;;;13.93;;
56136;SDS011;42008;52.934;5.884;2023-04-06T11:59:21;20.80;;;14.43;;
56136;SDS011;42008;52.934;5.884;2023-04-06T12:01:47;24.87;;;15.83;;
56136;SDS011;42008;52.934;5.884;2023-04-06T12:04:13;27.13;;;15.33;;
56136;SDS011;42008;52.934;5.884;2023-04-06T12:06:39;19.23;;;11.70;;
56136;SDS011;42008;52.934;5.884;2023-04-06T12:09:05;18.23;;;12.07;;
56136;SDS011;42008;52.934;5.884;2023-04-06T12:11:30;18.50;;;12.57;;
56136;SDS011;42008;52.934;5.884;2023-04-06T12:13:56;12.73;;;9.10;;
56136;SDS011;42008;52.934;5.884;2023-04-06T12:16:21;15.10;;;10.10;;
56136;SDS011;42008;52.934;5.884;2023-04-06T12:18:47;30.77;;;8.87;;
56136;SDS011;42008;52.934;5.884;2023-04-06T12:21:13;16.73;;;10.00;;
56136;SDS011;42008;52.934;5.884;2023-04-06T12:23:38;12.13;;;9.00;;
56136;SDS011;42008;52.934;5.884;2023-04-06T12:26:04;16.43;;;9.80;;
56136;SDS011;42008;52.934;5.884;2023-04-06T12:28:30;14.07;;;9.93;;
56136;SDS011;42008;52.934;5.884;2023-04-06T12:30:55;16.60;;;10.43;;
56136;SDS011;42008;52.934;5.884;2023-04-06T12:33:21;14.90;;;10.13;;
56136;SDS011;42008;52.934;5.884;2023-04-06T12:35:47;17.60;;;12.67;;
56136;SDS011;42008;52.934;5.884;2023-04-06T12:38:12;13.90;;;10.07;;
56136;SDS011;42008;52.934;5.884;2023-04-06T12:40:38;15.37;;;11.43;;
56136;SDS011;42008;52.934;5.884;2023-04-06T12:43:04;19.23;;;11.20;;
56136;SDS011;42008;52.934;5.884;2023-04-06T12:45:31;13.67;;;8.90;;
56136;SDS011;42008;52.934;5.884;2023-04-06T12:47:57;17.80;;;10.13;;
56136;SDS011;42008;52.934;5.884;2023-04-06T12:50:23;18.20;;;11.10;;
56136;SDS011;42008;52.934;5.884;2023-04-06T12:52:48;17.60;;;11.60;;
56136;SDS011;42008;52.934;5.884;2023-04-06T12:55:14;27.73;;;14.43;;
56136;SDS011;42008;52.934;5.884;2023-04-06T12:57:40;18.97;;;13.50;;
56136;SDS011;42008;52.934;5.884;2023-04-06T13:00:06;23.97;;;15.40;;
56136;SDS011;42008;52.934;5.884;2023-04-06T13:02:32;20.67;;;13.33;;
56136;SDS011;42008;52.934;5.884;2023-04-06T13:04:58;21.50;;;13.57;;
56136;SDS011;42008;52.934;5.884;2023-04-06T13:07:23;23.37;;;15.00;;
56136;SDS011;42008;52.934;5.884;2023-04-06T13:09:49;20.03;;;14.50;;
56136;SDS011;42008;52.934;5.884;2023-04-06T13:12:15;18.77;;;12.83;;
56136;SDS011;42008;52.934;5.884;2023-04-06T13:14:41;18.20;;;12.20;;
56136;SDS011;42008;52.934;5.884;2023-04-06T13:17:08;18.30;;;11.37;;
56136;SDS011;42008;52.934;5.884;2023-04-06T13:19:33;18.00;;;11.43;;
56136;SDS011;42008;52.934;5.884;2023-04-06T13:21:59;17.03;;;11.70;;
56136;SDS011;42008;52.934;5.884;2023-04-06T13:24:25;19.67;;;13.10;;
56136;SDS011;42008;52.934;5.884;2023-04-06T13:26:50;21.90;;;12.60;;
56136;SDS011;42008;52.934;5.884;2023-04-06T13:29:16;18.37;;;12.47;;
56136;SDS011;42008;52.934;5.884;2023-04-06T13:31:41;17.43;;;12.83;;
56136;SDS011;42008;52.934;5.884;2023-04-06T13:34:07;19.97;;;14.57;;
56136;SDS011;42008;52.934;5.884;2023-04-06T13:36:32;20.33;;;14.57;;
56136;SDS011;42008;52.934;5.884;2023-04-06T13:38:58;20.67;;;13.47;;
56136;SDS011;42008;52.934;5.884;2023-04-06T13:41:25;24.73;;;14.97;;
56136;SDS011;42008;52.934;5.884;2023-04-06T13:43:51;17.97;;;13.57;;
56136;SDS011;42008;52.934;5.884;2023-04-06T13:46:17;20.37;;;14.50;;
56136;SDS011;42008;52.934;5.884;2023-04-06T13:48:43;25.90;;;15.47;;
56136;SDS011;42008;52.934;5.884;2023-04-06T13:51:12;21.80;;;15.87;;
56136;SDS011;42008;52.934;5.884;2023-04-06T13:53:39;24.10;;;16.27;;
56136;SDS011;42008;52.934;5.884;2023-04-06T13:56:05;25.23;;;15.77;;
56136;SDS011;42008;52.934;5.884;2023-04-06T13:58:32;24.07;;;15.97;;
56136;SDS011;42008;52.934;5.884;2023-04-06T14:01:01;18.77;;;15.40;;
56136;SDS011;42008;52.934;5.884;2023-04-06T14:03:28;21.37;;;16.07;;
56136;SDS011;42008;52.934;5.884;2023-04-06T14:05:53;26.87;;;17.00;;
56136;SDS011;42008;52.934;5.884;2023-04-06T14:08:19;24.33;;;18.13;;
56136;SDS011;42008;52.934;5.884;2023-04-06T14:10:45;22.83;;;17.27;;
56136;SDS011;42008;52.934;5.884;2023-04-06T14:13:11;24.27;;;17.87;;
56136;SDS011;42008;52.934;5.884;2023-04-06T14:15:36;28.03;;;18.43;;
56136;SDS011;42008;52.934;5.884;2023-04-06T14:18:02;26.10;;;19.03;;
56136;SDS011;42008;52.934;5.884;2023-04-06T14:20:28;26.93;;;19.13;;
56136;SDS011;42008;52.934;5.884;2023-04-06T14:22:55;26.80;;;19.70;;
56136;SDS011;42008;52.934;5.884;2023-04-06T14:25:21;33.40;;;20.67;;
56136;SDS011;42008;52.934;5.884;2023-04-06T14:27:46;31.97;;;22.00;;
56136;SDS011;42008;52.934;5.884;2023-04-06T14:30:12;31.03;;;20.53;;